Terminal Aerodrome Forecast
Issued by NWS

Home | Current Version | Previous Version | Text Only | Print | Product List | Glossary On
Versions: 1 2 3 4 5 6 7 8 9 10 11 12 13 14 15 16 17
000
FTUS42 KFFC 042343
TAFFTY
TAF
KFTY 042343Z 0500/0524 04003KT P6SM SCT070 SCT250
     FM050500 04003KT P6SM SCT110
     FM051400 08005KT P6SM SCT050
     FM051800 08006KT P6SM VCSH BKN050 PROB30 0518/0524 5SM -TSRA
      BKN045CB=

USA.gov is the U.S. government's official web portal to all federal, state and local government web resources and services.